International Virtual Aviation Organisation

Russian Federation and Kazakhstan MCD

 
UARR 280130Z 16008MPS 2300 SHSN BKN005 OVC026CB M03/M04 Q1031 R22/420550 TEMPO 1000 SN BR BKN004 RMK QBB170 QFE769/1026
QNH:(hPa/inHg/mmHg)1031 / 30.45 / 773
QFE:(hPa/inHg/mmHg)1026 / 30.31 / 770
Temperature-3
Dew Point-4
Visibility1000
WeatherShowers Snow;Snow;Mist
Cloud CoverBKN (500);
OVC (2600);
BKN (400);
Transition Height1770 m./6000 ft.
Transition LevelFL70
SQUAWK